createdAt,value
2022-08-11T00:02:15.410Z,20.88
2022-08-11T00:04:42.664Z,20.85
2022-08-11T00:07:10.043Z,20.69
2022-08-11T00:09:39.499Z,20.73
2022-08-11T00:12:14.641Z,20.73
2022-08-11T00:14:41.682Z,20.74
2022-08-11T00:17:10.759Z,20.70
2022-08-11T00:20:11.603Z,20.73
2022-08-11T00:22:34.721Z,20.59
2022-08-11T00:25:10.190Z,20.63
2022-08-11T00:27:38.259Z,20.54
2022-08-11T00:30:06.275Z,20.53
2022-08-11T00:32:33.810Z,20.54
2022-08-11T00:35:54.228Z,20.55
2022-08-11T00:37:50.608Z,20.52
2022-08-11T00:40:44.047Z,20.52
2022-08-11T00:43:27.502Z,20.45
2022-08-11T00:46:16.225Z,20.49
2022-08-11T00:48:59.447Z,20.43
2022-08-11T00:52:04.841Z,20.33
2022-08-11T00:54:43.222Z,20.35
2022-08-11T00:57:38.218Z,20.32
2022-08-11T01:00:16.807Z,20.27
2022-08-11T01:02:55.533Z,20.23
2022-08-11T01:05:42.987Z,20.14
2022-08-11T01:08:36.159Z,20.14
2022-08-11T01:11:31.951Z,20.18
2022-08-11T01:14:19.718Z,20.10
2022-08-11T01:17:28.599Z,20.05
2022-08-11T01:20:48.072Z,20.03
2022-08-11T01:23:36.001Z,19.95
2022-08-11T01:26:43.542Z,20.00
2022-08-11T01:29:42.052Z,19.96
2022-08-11T01:32:38.139Z,19.93
2022-08-11T01:35:35.504Z,19.94
2022-08-11T01:38:25.742Z,19.91
2022-08-11T01:41:22.724Z,19.95
2022-08-11T01:44:34.895Z,19.93
2022-08-11T01:47:54.142Z,19.93
2022-08-11T01:50:25.380Z,19.86
2022-08-11T01:53:01.728Z,19.92
2022-08-11T01:55:38.301Z,19.85
2022-08-11T01:58:36.265Z,19.88
2022-08-11T02:01:37.292Z,19.77
2022-08-11T02:04:28.273Z,19.77
2022-08-11T02:07:17.157Z,19.70
2022-08-11T02:10:36.672Z,19.73
2022-08-11T02:13:16.722Z,19.82
2022-08-11T02:15:58.789Z,19.77
2022-08-11T02:18:54.877Z,19.69
2022-08-11T02:21:48.082Z,19.80
2022-08-11T02:24:23.803Z,19.73
2022-08-11T02:27:20.486Z,19.70
2022-08-11T02:29:52.933Z,19.77
2022-08-11T02:32:53.063Z,19.71
2022-08-11T02:35:27.895Z,19.70
2022-08-11T02:38:18.352Z,19.71
2022-08-11T02:41:28.599Z,19.47
2022-08-11T02:44:15.700Z,19.55
2022-08-11T02:47:27.578Z,19.47
2022-08-11T02:50:11.919Z,19.62
2022-08-11T02:53:03.322Z,19.49
2022-08-11T02:55:57.337Z,19.51
2022-08-11T02:58:30.068Z,19.56
2022-08-11T03:01:11.600Z,19.52
2022-08-11T03:03:53.346Z,19.48
2022-08-11T03:06:30.084Z,19.43
2022-08-11T03:09:05.408Z,19.38
2022-08-11T03:12:01.058Z,19.38
2022-08-11T03:15:12.930Z,19.27
2022-08-11T03:17:48.898Z,19.30
2022-08-11T03:20:33.245Z,19.27
2022-08-11T03:23:29.199Z,19.29
2022-08-11T03:26:05.668Z,19.34
2022-08-11T03:28:41.839Z,19.31
2022-08-11T03:31:28.248Z,19.23
2022-08-11T03:34:07.023Z,19.14
2022-08-11T03:37:16.363Z,19.19
2022-08-11T03:39:57.827Z,19.20
2022-08-11T03:42:50.304Z,19.13
2022-08-11T03:45:50.264Z,19.19
2022-08-11T03:48:49.089Z,19.05
2022-08-11T03:51:44.950Z,19.05
2022-08-11T03:54:54.550Z,19.02
2022-08-11T03:57:35.899Z,19.00
2022-08-11T04:00:19.033Z,19.03
2022-08-11T04:03:01.401Z,19.04
2022-08-11T04:06:00.026Z,19.02
2022-08-11T04:09:05.787Z,19.03
2022-08-11T04:11:35.207Z,18.99
2022-08-11T04:14:48.780Z,18.95
2022-08-11T04:17:33.731Z,18.98
2022-08-11T04:20:22.811Z,18.97
2022-08-11T04:23:04.678Z,18.90
2022-08-11T04:26:15.875Z,18.90
2022-08-11T04:29:24.898Z,18.90
2022-08-11T04:32:36.580Z,18.91
2022-08-11T04:35:19.223Z,18.82
2022-08-11T04:37:54.765Z,18.91
2022-08-11T04:40:48.781Z,18.87
2022-08-11T04:44:02.618Z,18.82
2022-08-11T04:46:59.497Z,18.88
2022-08-11T04:50:06.416Z,18.79
2022-08-11T04:53:28.690Z,18.76
2022-08-11T04:56:31.002Z,18.72
2022-08-11T05:00:01.016Z,18.75
2022-08-11T05:03:01.371Z,18.77
2022-08-11T05:05:33.619Z,18.86
2022-08-11T05:08:23.905Z,18.78
2022-08-11T05:11:26.225Z,18.90
2022-08-11T05:14:29.629Z,18.82
2022-08-11T05:17:26.031Z,18.85
2022-08-11T05:20:10.771Z,18.84
2022-08-11T05:22:58.666Z,18.80
2022-08-11T05:26:42.805Z,18.65
2022-08-11T05:29:19.433Z,18.70
2022-08-11T05:32:15.539Z,18.77
2022-08-11T05:34:52.869Z,18.78
2022-08-11T05:37:27.299Z,18.88
2022-08-11T05:40:19.691Z,18.87
2022-08-11T05:43:09.667Z,18.86
2022-08-11T05:46:02.673Z,18.91
2022-08-11T05:48:54.617Z,18.95
2022-08-11T05:51:52.277Z,18.89
2022-08-11T05:54:41.424Z,18.97
2022-08-11T05:57:09.608Z,19.04
2022-08-11T05:59:36.698Z,19.08
2022-08-11T06:02:06.166Z,19.13
2022-08-11T06:04:34.333Z,19.04
2022-08-11T06:07:05.660Z,19.09
2022-08-11T06:09:34.460Z,19.11
2022-08-11T06:12:03.752Z,19.18
2022-08-11T06:14:32.265Z,19.35
2022-08-11T06:17:01.314Z,19.36
2022-08-11T06:19:38.124Z,19.41
2022-08-11T06:22:06.287Z,19.51
2022-08-11T06:24:36.003Z,19.49
2022-08-11T06:27:12.666Z,19.53
2022-08-11T06:29:55.037Z,19.57
2022-08-11T06:32:28.590Z,19.63
2022-08-11T06:34:59.594Z,19.67
2022-08-11T06:38:08.057Z,19.85
2022-08-11T06:41:09.523Z,20.03
2022-08-11T06:43:56.078Z,20.38
2022-08-11T06:46:41.499Z,20.73
2022-08-11T06:49:53.956Z,21.33
2022-08-11T06:52:35.886Z,21.70
2022-08-11T06:55:55.719Z,22.10
2022-08-11T06:58:47.437Z,22.81
2022-08-11T07:01:49.473Z,23.02
2022-08-11T07:07:30.241Z,23.76
2022-08-11T07:10:59.440Z,24.02
2022-08-11T07:13:47.143Z,24.13
2022-08-11T07:16:26.525Z,24.51
2022-08-11T07:19:18.294Z,24.87
2022-08-11T07:22:05.773Z,25.12
2022-08-11T07:24:59.231Z,25.40
2022-08-11T07:27:55.768Z,25.54
2022-08-11T07:30:24.331Z,25.66
2022-08-11T07:32:58.326Z,25.84
2022-08-11T07:35:33.937Z,26.18
2022-08-11T07:38:11.687Z,26.51
2022-08-11T07:40:38.629Z,26.76
2022-08-11T07:43:06.955Z,26.79
2022-08-11T07:45:52.967Z,27.11
2022-08-11T07:48:39.123Z,27.06
2022-08-11T07:51:24.609Z,27.00
2022-08-11T07:53:58.362Z,27.37
2022-08-11T07:56:55.431Z,27.56
2022-08-11T08:00:00.175Z,27.49
2022-08-11T08:02:47.254Z,27.61
2022-08-11T08:05:34.837Z,27.71
2022-08-11T08:08:20.718Z,28.08
2022-08-11T08:11:06.066Z,28.43
2022-08-11T08:13:53.115Z,28.41
2022-08-11T08:16:39.658Z,28.50
2022-08-11T08:19:06.399Z,28.95
2022-08-11T08:21:33.383Z,28.80
2022-08-11T08:24:00.943Z,28.94
2022-08-11T08:26:51.558Z,28.90
2022-08-11T08:29:39.079Z,29.20
2022-08-11T08:32:07.772Z,29.35
2022-08-11T08:34:36.890Z,29.47
2022-08-11T08:37:16.134Z,29.70
2022-08-11T08:39:53.215Z,29.64
2022-08-11T08:42:31.767Z,29.90
2022-08-11T08:45:05.789Z,30.24
2022-08-11T08:47:42.726Z,29.75
2022-08-11T08:50:16.651Z,30.39
2022-08-11T08:52:53.500Z,30.61
2022-08-11T08:55:21.327Z,31.01
2022-08-11T08:57:50.413Z,31.09
2022-08-11T09:00:22.812Z,31.53
2022-08-11T09:02:51.721Z,31.29
2022-08-11T09:05:19.565Z,31.64
2022-08-11T09:07:51.031Z,31.53
2022-08-11T09:10:19.890Z,31.83
2022-08-11T09:12:48.132Z,31.88
2022-08-11T09:15:19.401Z,32.22
2022-08-11T09:17:48.870Z,32.07
2022-08-11T09:20:22.441Z,32.44
2022-08-11T09:26:19.283Z,32.24
2022-08-11T09:28:47.333Z,32.59
2022-08-11T09:31:15.905Z,32.44
2022-08-11T09:33:44.435Z,33.03
2022-08-11T09:36:31.481Z,33.35
2022-08-11T09:39:18.414Z,33.20
2022-08-11T09:42:01.908Z,33.05
2022-08-11T09:44:52.870Z,33.38
2022-08-11T09:47:29.656Z,33.29
2022-08-11T09:50:01.992Z,33.54
2022-08-11T09:52:57.236Z,33.48
2022-08-11T09:55:28.626Z,33.77
2022-08-11T09:58:41.495Z,34.17
2022-08-11T10:01:03.821Z,34.35
2022-08-11T10:03:32.288Z,33.80
2022-08-11T10:06:20.188Z,33.97
2022-08-11T10:09:00.346Z,34.26
2022-08-11T10:11:28.734Z,33.80
2022-08-11T10:14:33.295Z,34.13
2022-08-11T10:17:08.074Z,34.17
2022-08-11T10:19:37.818Z,34.62
2022-08-11T10:22:26.979Z,34.68
2022-08-11T10:25:15.402Z,34.89
2022-08-11T10:28:30.627Z,34.82
2022-08-11T10:30:57.794Z,34.34
2022-08-11T10:33:57.480Z,34.46
2022-08-11T10:36:29.264Z,34.25
2022-08-11T10:38:57.911Z,33.88
2022-08-11T10:42:08.376Z,34.36
2022-08-11T10:44:40.147Z,34.99
2022-08-11T10:47:26.224Z,34.37
2022-08-11T10:50:12.697Z,34.50
2022-08-11T10:52:58.980Z,34.11
2022-08-11T10:55:45.239Z,34.39
2022-08-11T10:58:31.780Z,34.20
2022-08-11T11:01:00.614Z,34.35
2022-08-11T11:03:29.827Z,33.84
2022-08-11T11:06:12.597Z,34.82
2022-08-11T11:09:04.036Z,34.55
2022-08-11T11:11:54.992Z,34.88
2022-08-11T11:14:46.379Z,34.77
2022-08-11T11:17:26.399Z,33.91
2022-08-11T11:19:57.573Z,33.65
2022-08-11T11:22:40.626Z,34.74
2022-08-11T11:25:16.626Z,34.72
2022-08-11T11:28:07.753Z,34.80
2022-08-11T11:30:45.925Z,33.72
2022-08-11T11:33:28.352Z,34.35
2022-08-11T11:36:09.130Z,34.11
2022-08-11T11:38:36.038Z,33.92
2022-08-11T11:41:21.301Z,33.78
2022-08-11T11:43:48.199Z,34.82
2022-08-11T11:46:14.993Z,34.84
2022-08-11T11:48:42.134Z,35.26
2022-08-11T11:51:09.714Z,35.07
2022-08-11T11:53:36.240Z,34.68
2022-08-11T11:56:03.297Z,35.42
2022-08-11T11:58:48.333Z,35.41
2022-08-11T12:01:18.950Z,35.16
2022-08-11T12:03:49.239Z,35.15
2022-08-11T12:06:17.649Z,35.44
2022-08-11T12:08:47.884Z,35.58
2022-08-11T12:11:34.707Z,35.22
2022-08-11T12:14:10.776Z,34.54
2022-08-11T12:16:40.176Z,34.66
2022-08-11T12:19:11.905Z,35.07
2022-08-11T12:22:00.995Z,34.91
2022-08-11T12:24:47.916Z,34.99
2022-08-11T12:27:24.018Z,34.66
2022-08-11T12:29:58.117Z,34.02
2022-08-11T12:32:28.983Z,35.14
2022-08-11T12:34:57.196Z,35.41
2022-08-11T12:37:30.164Z,34.61
2022-08-11T12:40:49.479Z,34.95
2022-08-11T12:43:38.819Z,34.31
2022-08-11T12:46:16.596Z,34.87
2022-08-11T12:49:05.612Z,34.84
2022-08-11T12:52:12.712Z,33.92
2022-08-11T12:54:59.738Z,34.25
2022-08-11T12:57:58.450Z,34.05
2022-08-11T13:00:45.715Z,34.72
2022-08-11T13:03:32.537Z,34.18
2022-08-11T13:06:02.578Z,34.66
2022-08-11T13:08:33.184Z,34.28
2022-08-11T13:11:19.416Z,33.25
2022-08-11T13:13:53.955Z,33.47
2022-08-11T13:16:26.235Z,34.05
2022-08-11T13:18:53.593Z,34.04
2022-08-11T13:21:21.867Z,34.02
2022-08-11T13:24:01.656Z,34.08
2022-08-11T13:26:47.237Z,33.53
2022-08-11T13:29:18.099Z,33.89
2022-08-11T13:31:45.576Z,33.54
2022-08-11T13:34:12.329Z,33.69
2022-08-11T13:36:39.415Z,33.71
2022-08-11T13:39:06.241Z,32.92
2022-08-11T13:41:39.388Z,32.82
2022-08-11T13:44:12.014Z,33.55
2022-08-11T13:46:39.703Z,33.87
2022-08-11T13:49:11.083Z,33.97
2022-08-11T13:51:39.937Z,33.69
2022-08-11T13:54:20.641Z,33.52
2022-08-11T13:56:50.094Z,33.69
2022-08-11T13:59:23.027Z,33.77
2022-08-11T14:02:19.408Z,33.49
2022-08-11T14:04:51.014Z,33.08
2022-08-11T14:07:22.745Z,32.80
2022-08-11T14:09:56.627Z,32.54
2022-08-11T14:12:44.939Z,32.97
2022-08-11T14:15:25.177Z,33.00
2022-08-11T14:18:01.564Z,32.70
2022-08-11T14:20:50.902Z,33.15
2022-08-11T14:23:19.064Z,33.23
2022-08-11T14:26:05.545Z,33.00
2022-08-11T14:28:41.554Z,32.95
2022-08-11T14:31:11.278Z,32.61
2022-08-11T14:34:00.322Z,32.79
2022-08-11T14:36:27.004Z,32.86
2022-08-11T14:38:55.147Z,32.75
2022-08-11T14:42:11.672Z,32.56
2022-08-11T14:44:49.195Z,32.55
2022-08-11T14:47:24.402Z,32.04
2022-08-11T14:50:09.639Z,31.98
2022-08-11T14:52:43.259Z,32.13
2022-08-11T14:55:29.597Z,32.14
2022-08-11T14:57:58.398Z,31.92
2022-08-11T15:00:25.446Z,31.79
2022-08-11T15:03:12.145Z,31.98
2022-08-11T15:05:55.939Z,32.20
2022-08-11T15:08:46.075Z,32.17
2022-08-11T15:11:33.158Z,31.96
2022-08-11T15:14:02.288Z,31.99
2022-08-11T15:16:48.449Z,31.80
2022-08-11T15:19:16.350Z,31.71
2022-08-11T15:22:03.381Z,31.70
2022-08-11T15:24:30.883Z,31.56
2022-08-11T15:27:19.335Z,31.35
2022-08-11T15:30:06.260Z,31.28
2022-08-11T15:32:54.021Z,31.38
2022-08-11T15:35:39.783Z,31.38
2022-08-11T15:38:11.623Z,31.19
2022-08-11T15:41:00.294Z,31.08
2022-08-11T15:43:52.123Z,31.09
2022-08-11T15:46:44.686Z,31.05
2022-08-11T15:50:11.095Z,31.00
2022-08-11T15:52:22.859Z,31.07
2022-08-11T15:54:50.185Z,31.06
2022-08-11T15:57:39.960Z,31.01
2022-08-11T16:00:26.123Z,30.86
2022-08-11T16:02:56.949Z,30.89
2022-08-11T16:05:45.726Z,30.84
2022-08-11T16:08:15.289Z,30.73
2022-08-11T16:10:44.810Z,30.75
2022-08-11T16:13:14.449Z,30.71
2022-08-11T16:16:06.280Z,30.68
2022-08-11T16:18:44.290Z,30.66
2022-08-11T16:21:26.149Z,30.55
2022-08-11T16:24:06.066Z,30.49
2022-08-11T16:27:11.527Z,30.56
2022-08-11T16:29:25.214Z,30.44
2022-08-11T16:32:11.209Z,30.36
2022-08-11T16:34:58.344Z,30.34
2022-08-11T16:37:44.144Z,30.29
2022-08-11T16:40:11.731Z,30.26
2022-08-11T16:43:00.028Z,30.18
2022-08-11T16:45:58.316Z,30.17
2022-08-11T16:48:35.161Z,30.13
2022-08-11T16:51:03.637Z,30.05
2022-08-11T16:53:45.938Z,30.06
2022-08-11T16:56:51.131Z,30.07
2022-08-11T16:59:26.418Z,30.03
2022-08-11T17:02:10.426Z,29.98
2022-08-11T17:05:02.142Z,29.85
2022-08-11T17:07:49.165Z,29.81
2022-08-11T17:10:53.433Z,29.81
2022-08-11T17:13:28.002Z,29.72
2022-08-11T17:16:09.492Z,29.74
2022-08-11T17:18:44.976Z,29.77
2022-08-11T17:21:16.531Z,29.66
2022-08-11T17:23:48.004Z,29.57
2022-08-11T17:26:20.913Z,29.53
2022-08-11T17:28:52.636Z,29.45
2022-08-11T17:31:40.182Z,29.31
2022-08-11T17:34:26.830Z,29.28
2022-08-11T17:36:55.073Z,29.26
2022-08-11T17:39:29.099Z,29.31
2022-08-11T17:42:15.230Z,29.25
2022-08-11T17:45:01.277Z,29.21
2022-08-11T17:47:48.931Z,29.17
2022-08-11T17:50:16.858Z,29.00
2022-08-11T17:53:04.441Z,29.06
2022-08-11T17:55:53.395Z,28.98
2022-08-11T17:58:40.284Z,28.89
2022-08-11T18:01:10.871Z,28.72
2022-08-11T18:03:40.543Z,28.60
2022-08-11T18:06:12.542Z,28.55
2022-08-11T18:09:02.704Z,28.61
2022-08-11T18:12:06.467Z,28.58
2022-08-11T18:14:59.617Z,28.44
2022-08-11T18:17:44.624Z,28.38
2022-08-11T18:20:29.862Z,28.40
2022-08-11T18:23:17.034Z,28.24
2022-08-11T18:26:07.310Z,28.20
2022-08-11T18:29:01.024Z,28.03
2022-08-11T18:31:46.891Z,28.01
2022-08-11T18:34:36.963Z,28.10
2022-08-11T18:37:29.090Z,28.05
2022-08-11T18:40:25.643Z,27.96
2022-08-11T18:43:13.887Z,27.77
2022-08-11T18:46:06.939Z,27.70
2022-08-11T18:48:57.052Z,27.68
2022-08-11T18:51:44.831Z,27.65
2022-08-11T18:54:32.592Z,27.66
2022-08-11T18:57:21.931Z,27.50
2022-08-11T19:00:09.818Z,27.40
2022-08-11T19:02:57.622Z,27.43
2022-08-11T19:06:35.868Z,27.37
2022-08-11T19:08:58.744Z,27.18
2022-08-11T19:11:45.401Z,27.25
2022-08-11T19:14:31.941Z,27.15
2022-08-11T19:17:44.711Z,27.11
2022-08-11T19:20:28.867Z,27.04
2022-08-11T19:23:15.738Z,27.02
2022-08-11T19:26:03.677Z,26.89
2022-08-11T19:28:50.474Z,26.56
2022-08-11T19:31:39.815Z,26.45
2022-08-11T19:34:29.122Z,26.45
2022-08-11T19:37:15.151Z,26.27
2022-08-11T19:40:00.986Z,26.15
2022-08-11T19:42:47.459Z,26.10
2022-08-11T19:45:34.708Z,26.04
2022-08-11T19:48:31.820Z,25.92
2022-08-11T19:51:19.233Z,25.94
2022-08-11T19:54:06.516Z,25.89
2022-08-11T19:56:53.794Z,25.87
2022-08-11T19:59:41.860Z,25.74
2022-08-11T20:02:28.168Z,25.67
2022-08-11T20:05:13.504Z,25.56
2022-08-11T20:07:59.421Z,25.52
2022-08-11T20:10:46.465Z,25.41
2022-08-11T20:13:32.530Z,25.38
2022-08-11T20:16:19.027Z,25.25
2022-08-11T20:19:05.285Z,25.21
2022-08-11T20:21:51.672Z,25.12
2022-08-11T20:24:37.860Z,25.06
2022-08-11T20:27:25.261Z,25.05
2022-08-11T20:30:12.543Z,24.96
2022-08-11T20:33:00.468Z,24.90
2022-08-11T20:35:46.835Z,24.82
2022-08-11T20:38:34.031Z,24.73
2022-08-11T20:41:22.114Z,24.75
2022-08-11T20:44:09.657Z,24.65
2022-08-11T20:46:57.551Z,24.65
2022-08-11T20:49:53.889Z,24.66
2022-08-11T20:52:48.093Z,24.50
2022-08-11T20:55:52.110Z,24.41
2022-08-11T21:01:46.256Z,24.38
2022-08-11T21:04:32.703Z,24.28
2022-08-11T21:07:28.259Z,24.25
2022-08-11T21:10:23.142Z,24.17
2022-08-11T21:13:26.159Z,24.09
2022-08-11T21:16:16.367Z,24.08
2022-08-11T21:19:15.849Z,24.07
2022-08-11T21:22:03.586Z,24.08
2022-08-11T21:24:51.372Z,24.06
2022-08-11T21:27:38.556Z,23.98
2022-08-11T21:30:24.178Z,23.88
2022-08-11T21:33:11.522Z,23.84
2022-08-11T21:35:56.417Z,23.75
2022-08-11T21:38:41.531Z,23.74
2022-08-11T21:41:28.709Z,23.62
2022-08-11T21:44:14.632Z,23.60
2022-08-11T21:47:00.522Z,23.64
2022-08-11T21:49:47.487Z,23.67
2022-08-11T21:52:32.422Z,23.55
2022-08-11T21:55:18.333Z,23.46
2022-08-11T21:58:04.748Z,23.50
2022-08-11T22:00:50.093Z,23.41
2022-08-11T22:03:41.098Z,23.31
2022-08-11T22:06:35.585Z,23.18
2022-08-11T22:09:20.739Z,23.11
2022-08-11T22:12:33.565Z,23.17
2022-08-11T22:15:10.548Z,23.19
2022-08-11T22:17:58.051Z,23.12
2022-08-11T22:20:45.578Z,23.02
2022-08-11T22:23:36.081Z,23.07
2022-08-11T22:26:22.701Z,22.99
2022-08-11T22:29:08.087Z,22.95
2022-08-11T22:31:55.112Z,22.78
2022-08-11T22:34:52.804Z,22.86
2022-08-11T22:37:40.643Z,22.82
2022-08-11T22:40:28.181Z,22.93
2022-08-11T22:43:13.666Z,23.00
2022-08-11T22:45:59.044Z,22.99
2022-08-11T22:48:49.038Z,22.86
2022-08-11T22:51:36.517Z,22.87
2022-08-11T22:54:23.413Z,22.87
2022-08-11T22:57:09.316Z,22.81
2022-08-11T22:59:55.647Z,22.87
2022-08-11T23:02:41.900Z,22.67
2022-08-11T23:05:27.455Z,22.78
2022-08-11T23:08:14.395Z,22.61
2022-08-11T23:11:00.433Z,22.56
2022-08-11T23:13:47.538Z,22.66
2022-08-11T23:16:33.167Z,22.66
2022-08-11T23:20:04.638Z,22.54
2022-08-11T23:22:24.260Z,22.66
2022-08-11T23:25:29.120Z,22.58
2022-08-11T23:28:16.623Z,22.59
2022-08-11T23:31:02.956Z,22.61
2022-08-11T23:33:49.698Z,22.51
2022-08-11T23:36:46.710Z,22.38
2022-08-11T23:39:34.531Z,22.39
2022-08-11T23:42:20.837Z,22.39
2022-08-11T23:45:09.479Z,22.33
2022-08-11T23:47:57.302Z,22.20
2022-08-11T23:50:43.464Z,22.25
2022-08-11T23:53:29.550Z,22.19
2022-08-11T23:56:14.775Z,22.21
2022-08-11T23:59:00.183Z,22.19
